createdAt,value
2018-04-30T00:00:36.190Z,100510.95
2018-04-30T00:03:40.361Z,100505.88
2018-04-30T00:06:43.677Z,100501.42
2018-04-30T00:09:47.067Z,100513.08
2018-04-30T00:12:51.096Z,100503.21
2018-04-30T00:15:55.908Z,100500.18
2018-04-30T00:18:59.225Z,100499.78
2018-04-30T00:22:02.548Z,100493.69
2018-04-30T00:25:05.911Z,100494.95
2018-04-30T00:28:09.304Z,100483.63
2018-04-30T00:31:12.669Z,100482.39
2018-04-30T00:34:16.005Z,100478.02
2018-04-30T00:37:19.410Z,100473.93
2018-04-30T00:40:22.812Z,100470.59
2018-04-30T00:43:26.210Z,100457.41
2018-04-30T00:46:29.601Z,100452.25
2018-04-30T00:49:33.011Z,100447.48
2018-04-30T00:52:36.410Z,100442.22
2018-04-30T00:55:39.814Z,100438.76
2018-04-30T00:58:43.215Z,100420.17
2018-04-30T01:01:46.705Z,100411.94
2018-04-30T01:04:50.003Z,100410.11
2018-04-30T01:07:53.332Z,100405.88
2018-04-30T01:10:56.696Z,100398.02
2018-04-30T01:14:00.024Z,100392.73
2018-04-30T01:17:03.409Z,100395.42
2018-04-30T01:20:06.816Z,100385.86
2018-04-30T01:23:10.132Z,100380.67
2018-04-30T01:26:14.200Z,100378.56
2018-04-30T01:29:17.618Z,100376.37
2018-04-30T01:32:20.945Z,100372.91
2018-04-30T01:35:24.307Z,100367.77
2018-04-30T01:38:27.621Z,100362.17
2018-04-30T01:41:31.061Z,100348.25
2018-04-30T01:44:34.346Z,100344.38
2018-04-30T01:47:38.429Z,100326.14
2018-04-30T01:50:41.824Z,100323.92
2018-04-30T01:53:45.150Z,100306.16
2018-04-30T01:56:48.489Z,100291.87
2018-04-30T01:59:51.798Z,100285.36
2018-04-30T02:02:55.141Z,100285.30
2018-04-30T02:05:58.522Z,100285.30
2018-04-30T02:09:01.925Z,100274.83
2018-04-30T02:12:05.318Z,100268.28
2018-04-30T02:15:08.713Z,100253.95
2018-04-30T02:18:12.041Z,100250.91
2018-04-30T02:21:16.108Z,100247.02
2018-04-30T02:24:19.532Z,100231.47
2018-04-30T02:27:22.932Z,100224.54
2018-04-30T02:30:26.238Z,100222.78
2018-04-30T02:33:29.594Z,100204.47
2018-04-30T02:36:32.931Z,100191.05
2018-04-30T02:39:36.324Z,100183.29
2018-04-30T02:42:39.639Z,100173.69
2018-04-30T02:45:43.033Z,100167.28
2018-04-30T02:48:46.430Z,100158.11
2018-04-30T02:51:49.818Z,100157.71
2018-04-30T02:54:53.245Z,100145.14
2018-04-30T02:57:56.621Z,100144.22
2018-04-30T03:00:59.943Z,100133.38
2018-04-30T03:04:03.326Z,100125.97
2018-04-30T03:07:06.650Z,100116.00
2018-04-30T03:10:10.030Z,100098.27
2018-04-30T03:13:13.424Z,100101.67
2018-04-30T03:16:16.725Z,100094.77
2018-04-30T03:19:20.112Z,100096.07
2018-04-30T03:22:23.530Z,100093.09
2018-04-30T03:25:26.850Z,100082.30
2018-04-30T03:28:30.173Z,100075.79
2018-04-30T03:31:33.513Z,100070.66
2018-04-30T03:34:36.838Z,100069.38
2018-04-30T03:37:40.158Z,100062.48
2018-04-30T03:40:44.328Z,100076.34
2018-04-30T03:43:47.728Z,100076.39
2018-04-30T03:46:51.139Z,100067.27
2018-04-30T03:49:54.538Z,100064.68
2018-04-30T03:52:57.865Z,100049.14
2018-04-30T03:56:01.940Z,100030.11
2018-04-30T03:59:05.266Z,100031.41
2018-04-30T04:02:26.457Z,100015.88
2018-04-30T04:05:47.786Z,100009.41
2018-04-30T04:08:51.168Z,99996.86
2018-04-30T04:11:54.568Z,99988.26
2018-04-30T04:14:57.901Z,99959.69
2018-04-30T04:18:01.221Z,99964.02
2018-04-30T04:21:05.389Z,99952.84
2018-04-30T04:24:08.793Z,99953.30
2018-04-30T04:27:12.099Z,99940.73
2018-04-30T04:30:15.416Z,99932.95
2018-04-30T04:33:18.734Z,99943.34
2018-04-30T04:36:23.208Z,99946.41
2018-04-30T04:39:26.617Z,99939.89
2018-04-30T04:42:30.016Z,99943.81
2018-04-30T04:45:33.416Z,99949.94
2018-04-30T04:48:36.746Z,99953.89
2018-04-30T04:51:41.640Z,99944.37
2018-04-30T04:54:45.041Z,99940.48
2018-04-30T04:57:48.361Z,99934.46
2018-04-30T05:00:51.701Z,99919.73
2018-04-30T05:03:55.043Z,99912.81
2018-04-30T05:06:58.448Z,99905.00
2018-04-30T05:10:01.862Z,99885.06
2018-04-30T05:13:05.241Z,99873.38
2018-04-30T05:16:08.636Z,99857.78
2018-04-30T05:19:11.968Z,99848.23
2018-04-30T05:22:15.290Z,99851.73
2018-04-30T05:25:19.474Z,99855.61
2018-04-30T05:28:22.917Z,99848.27
2018-04-30T05:31:26.231Z,99866.44
2018-04-30T05:34:29.552Z,99872.95
2018-04-30T05:37:32.954Z,99867.77
2018-04-30T05:40:36.294Z,99855.63
2018-04-30T05:43:40.395Z,99859.08
2018-04-30T05:46:43.787Z,99858.66
2018-04-30T05:49:47.170Z,99849.55
2018-04-30T05:52:50.491Z,99836.98
2018-04-30T05:55:53.804Z,99817.03
2018-04-30T05:58:57.903Z,99795.34
2018-04-30T06:02:01.283Z,99761.95
2018-04-30T06:05:04.632Z,99772.80
2018-04-30T06:08:08.794Z,99781.49
2018-04-30T06:11:12.212Z,99791.03
2018-04-30T06:14:15.548Z,99756.78
2018-04-30T06:17:19.625Z,99786.67
2018-04-30T06:20:23.009Z,99787.97
2018-04-30T06:23:27.232Z,99772.80
2018-04-30T06:26:30.638Z,99747.63
2018-04-30T06:29:34.030Z,99726.81
2018-04-30T06:32:37.489Z,99689.96
2018-04-30T06:35:40.837Z,99669.98
2018-04-30T06:38:44.175Z,99651.80
2018-04-30T06:41:48.373Z,99637.47
2018-04-30T06:44:51.757Z,99682.15
2018-04-30T06:47:55.077Z,99672.59
2018-04-30T06:50:58.411Z,99650.50
2018-04-30T06:54:01.721Z,99636.27
2018-04-30T06:57:05.149Z,99625.88
2018-04-30T07:00:08.465Z,99626.80
2018-04-30T07:03:11.837Z,99624.68
2018-04-30T07:06:15.261Z,99612.98
2018-04-30T07:09:18.707Z,99572.23
2018-04-30T07:12:22.032Z,99551.87
2018-04-30T07:15:25.369Z,99553.16
2018-04-30T07:18:28.682Z,99557.88
2018-04-30T07:21:32.845Z,99593.38
2018-04-30T07:24:36.159Z,99639.28
2018-04-30T07:27:39.563Z,99732.49
2018-04-30T07:30:43.673Z,99850.41
2018-04-30T07:33:47.072Z,99918.46
2018-04-30T07:36:50.393Z,99912.80
2018-04-30T07:39:53.762Z,99907.98
2018-04-30T07:42:57.181Z,99878.09
2018-04-30T07:46:00.521Z,99882.41
2018-04-30T07:49:03.871Z,99910.16
2018-04-30T07:52:07.286Z,99948.27
2018-04-30T07:55:10.661Z,99967.29
2018-04-30T07:58:14.058Z,99952.05
2018-04-30T08:01:17.473Z,99932.11
2018-04-30T08:04:20.866Z,99910.05
2018-04-30T08:07:24.176Z,99939.09
2018-04-30T08:10:27.569Z,100019.61
2018-04-30T08:13:30.966Z,99965.52
2018-04-30T08:16:34.355Z,99930.97
2018-04-30T08:19:37.718Z,99838.23
2018-04-30T08:22:41.061Z,99817.42
2018-04-30T08:25:44.457Z,99805.23
2018-04-30T08:28:47.987Z,99771.02
2018-04-30T08:31:51.368Z,99757.55
2018-04-30T08:34:54.691Z,99759.63
2018-04-30T08:37:58.052Z,99764.84
2018-04-30T08:41:01.399Z,99716.40
2018-04-30T08:44:05.670Z,99721.59
2018-04-30T08:47:09.012Z,99725.45
2018-04-30T08:50:12.326Z,99741.03
2018-04-30T08:53:16.608Z,99781.36
2018-04-30T08:56:20.020Z,99732.91
2018-04-30T08:59:23.397Z,99684.86
2018-04-30T09:02:26.722Z,99669.28
2018-04-30T09:05:30.825Z,99662.37
2018-04-30T09:08:34.165Z,99641.61
2018-04-30T09:11:37.619Z,99609.55
2018-04-30T09:14:40.932Z,99587.02
2018-04-30T09:17:44.312Z,99596.06
2018-04-30T09:20:47.708Z,99591.74
2018-04-30T09:23:51.037Z,99619.05
2018-04-30T09:26:54.372Z,99643.30
2018-04-30T09:29:57.714Z,99615.56
2018-04-30T09:33:01.101Z,99613.84
2018-04-30T09:36:04.493Z,99603.45
2018-04-30T09:39:07.817Z,99593.08
2018-04-30T09:42:11.192Z,99670.60
2018-04-30T09:45:14.521Z,99687.95
2018-04-30T09:48:17.907Z,99660.64
2018-04-30T09:51:21.311Z,99653.68
2018-04-30T09:54:25.512Z,99650.64
2018-04-30T09:57:28.934Z,99600.86
2018-04-30T10:00:32.314Z,99623.80
2018-04-30T10:03:35.649Z,99632.02
2018-04-30T10:06:39.761Z,99625.03
2018-04-30T10:09:43.129Z,99637.92
2018-04-30T10:12:46.537Z,99607.84
2018-04-30T10:15:49.854Z,99618.98
2018-04-30T10:18:53.192Z,99623.33
2018-04-30T10:21:56.510Z,99623.30
2018-04-30T10:24:59.848Z,99615.42
2018-04-30T10:28:03.162Z,99598.80
2018-04-30T10:31:07.269Z,99606.91
2018-04-30T10:34:10.599Z,99595.52
2018-04-30T10:37:13.942Z,99597.22
2018-04-30T10:40:17.966Z,99593.47
2018-04-30T10:43:21.363Z,99581.76
2018-04-30T10:46:24.747Z,99580.40
2018-04-30T10:49:28.131Z,99579.20
2018-04-30T10:52:31.465Z,99576.30
2018-04-30T10:55:35.661Z,99598.00
2018-04-30T10:58:38.970Z,99597.94
2018-04-30T11:01:42.427Z,99594.17
2018-04-30T11:04:45.781Z,99599.45
2018-04-30T11:07:49.189Z,99606.06
2018-04-30T11:10:52.502Z,99600.47
2018-04-30T11:13:56.612Z,99601.84
2018-04-30T11:17:00.825Z,99605.75
2018-04-30T11:20:04.179Z,99606.19
2018-04-30T11:23:07.504Z,99595.78
2018-04-30T11:26:10.917Z,99595.74
2018-04-30T11:29:14.297Z,99600.96
2018-04-30T11:32:17.693Z,99586.21
2018-04-30T11:35:21.025Z,99586.66
2018-04-30T11:38:25.146Z,99589.23
2018-04-30T11:41:29.345Z,99591.81
2018-04-30T11:44:32.720Z,99592.70
2018-04-30T11:47:36.071Z,99587.90
2018-04-30T11:50:39.429Z,99589.89
2018-04-30T11:53:42.777Z,99585.55
2018-04-30T11:56:46.128Z,99593.31
2018-04-30T11:59:49.590Z,99605.40
2018-04-30T12:02:53.028Z,99601.55
2018-04-30T12:05:57.977Z,99607.63
2018-04-30T12:09:01.335Z,99606.79
2018-04-30T12:12:07.292Z,99605.55
2018-04-30T12:15:10.672Z,99602.21
2018-04-30T12:18:14.084Z,99601.74
2018-04-30T12:21:17.528Z,99598.34
2018-04-30T12:24:20.924Z,99592.73
2018-04-30T12:27:24.321Z,99603.65
2018-04-30T12:30:27.652Z,99611.05
2018-04-30T12:33:31.849Z,99611.52
2018-04-30T12:36:35.251Z,99614.56
2018-04-30T12:39:38.633Z,99613.34
2018-04-30T12:42:42.078Z,99610.24
2018-04-30T12:45:45.558Z,99607.67
2018-04-30T12:48:48.888Z,99602.41
2018-04-30T12:51:53.062Z,99591.56
2018-04-30T12:54:56.457Z,99590.29
2018-04-30T12:57:59.845Z,99599.39
2018-04-30T13:01:03.257Z,99604.95
2018-04-30T13:04:06.624Z,99604.11
2018-04-30T13:07:09.973Z,99619.33
2018-04-30T13:10:13.354Z,99618.05
2018-04-30T13:13:17.497Z,99625.84
2018-04-30T13:16:21.687Z,99637.96
2018-04-30T13:19:25.135Z,99643.63
2018-04-30T13:22:28.614Z,99651.45
2018-04-30T13:25:31.981Z,99656.23
2018-04-30T13:28:35.396Z,99655.80
2018-04-30T13:31:39.406Z,99663.63
2018-04-30T13:34:42.744Z,99669.25
2018-04-30T13:37:46.936Z,99667.56
2018-04-30T13:40:50.336Z,99674.05
2018-04-30T13:43:53.658Z,99670.16
2018-04-30T13:46:57.765Z,99669.32
2018-04-30T13:50:01.080Z,99671.03
2018-04-30T13:53:05.261Z,99669.73
2018-04-30T13:56:08.652Z,99667.98
2018-04-30T13:59:11.981Z,99669.75
2018-04-30T14:02:15.301Z,99662.80
2018-04-30T14:05:18.760Z,99660.64
2018-04-30T14:08:22.088Z,99665.41
2018-04-30T14:11:26.272Z,99664.97
2018-04-30T14:14:29.602Z,99656.28
2018-04-30T14:17:33.720Z,99657.56
2018-04-30T14:20:37.814Z,99661.47
2018-04-30T14:23:41.197Z,99648.92
2018-04-30T14:26:44.517Z,99659.73
2018-04-30T14:29:47.878Z,99653.67
2018-04-30T14:32:51.188Z,99661.88
2018-04-30T14:35:54.534Z,99660.55
2018-04-30T14:38:58.715Z,99649.22
2018-04-30T14:42:02.067Z,99650.02
2018-04-30T14:45:05.398Z,99653.45
2018-04-30T14:48:08.838Z,99646.45
2018-04-30T14:51:12.179Z,99650.79
2018-04-30T14:54:15.684Z,99645.52
2018-04-30T14:57:19.010Z,99645.91
2018-04-30T15:00:23.362Z,99653.77
2018-04-30T15:03:26.734Z,99659.84
2018-04-30T15:06:30.080Z,99656.81
2018-04-30T15:09:34.172Z,99649.41
2018-04-30T15:12:38.282Z,99647.23
2018-04-30T15:15:41.725Z,99648.45
2018-04-30T15:18:45.178Z,99649.20
2018-04-30T15:21:48.601Z,99649.41
2018-04-30T15:24:52.703Z,99645.42
2018-04-30T15:27:56.030Z,99649.13
2018-04-30T15:31:00.207Z,99652.02
2018-04-30T15:34:03.546Z,99650.25
2018-04-30T15:37:07.727Z,99654.25
2018-04-30T15:40:11.043Z,99652.56
2018-04-30T15:43:15.220Z,99650.98
2018-04-30T15:46:18.528Z,99646.26
2018-04-30T15:49:21.887Z,99653.73
2018-04-30T15:52:25.231Z,99654.23
2018-04-30T15:55:28.590Z,99664.64
2018-04-30T15:58:31.901Z,99671.14
2018-04-30T16:01:35.256Z,99675.41
2018-04-30T16:04:39.340Z,99667.06
2018-04-30T16:07:42.713Z,99673.98
2018-04-30T16:10:46.159Z,99665.76
2018-04-30T16:13:49.571Z,99657.09
2018-04-30T16:16:53.778Z,99651.42
2018-04-30T16:19:57.157Z,99646.60
2018-04-30T16:23:00.464Z,99648.31
2018-04-30T16:26:03.860Z,99657.89
2018-04-30T16:29:07.180Z,99666.17
2018-04-30T16:32:10.526Z,99663.08
2018-04-30T16:35:13.854Z,99668.13
2018-04-30T16:38:17.260Z,99672.84
2018-04-30T16:41:20.579Z,99680.25
2018-04-30T16:44:23.961Z,99675.86
2018-04-30T16:47:28.077Z,99688.07
2018-04-30T16:50:31.471Z,99690.55
2018-04-30T16:53:34.764Z,99691.53
2018-04-30T16:56:38.094Z,99696.09
2018-04-30T16:59:42.274Z,99690.25
2018-04-30T17:02:45.631Z,99685.55
2018-04-30T17:05:49.017Z,99691.38
2018-04-30T17:08:53.117Z,99691.67
2018-04-30T17:11:56.536Z,99689.61
2018-04-30T17:14:59.907Z,99690.19
2018-04-30T17:18:04.018Z,99692.33
2018-04-30T17:21:07.359Z,99691.87
2018-04-30T17:24:11.544Z,99690.33
2018-04-30T17:27:14.920Z,99683.67
2018-04-30T17:30:18.284Z,99687.27
2018-04-30T17:33:21.619Z,99695.83
2018-04-30T17:36:25.008Z,99694.95
2018-04-30T17:39:28.302Z,99698.16
2018-04-30T17:42:31.730Z,99703.30
2018-04-30T17:45:35.108Z,99704.54
2018-04-30T17:48:38.423Z,99706.86
2018-04-30T17:51:41.824Z,99711.89
2018-04-30T17:54:45.216Z,99712.72
2018-04-30T17:57:48.631Z,99714.36
2018-04-30T18:00:52.037Z,99713.28
2018-04-30T18:03:55.382Z,99716.11
2018-04-30T18:06:58.813Z,99714.11
2018-04-30T18:10:02.067Z,99712.92
2018-04-30T18:13:06.901Z,99709.58
2018-04-30T18:16:10.348Z,99724.48
2018-04-30T18:19:13.671Z,99723.31
2018-04-30T18:22:17.073Z,99725.59
2018-04-30T18:25:20.447Z,99735.23
2018-04-30T18:28:23.815Z,99737.05
2018-04-30T18:31:27.146Z,99744.91
2018-04-30T18:34:30.558Z,99749.73
2018-04-30T18:37:34.656Z,99757.09
2018-04-30T18:40:38.001Z,99756.23
2018-04-30T18:43:42.200Z,99754.04
2018-04-30T18:46:45.672Z,99752.73
2018-04-30T18:49:49.083Z,99761.02
2018-04-30T18:52:52.437Z,99751.06
2018-04-30T18:55:55.770Z,99756.27
2018-04-30T18:58:59.130Z,99754.52
2018-04-30T19:02:02.714Z,99751.95
2018-04-30T19:05:06.385Z,99758.05
2018-04-30T19:08:10.053Z,99760.66
2018-04-30T19:11:13.721Z,99756.35
2018-04-30T19:14:17.267Z,99760.67
2018-04-30T19:17:20.629Z,99755.04
2018-04-30T19:20:23.993Z,99758.07
2018-04-30T19:23:27.398Z,99756.33
2018-04-30T19:26:42.480Z,99763.25
2018-04-30T19:30:00.200Z,99764.56
2018-04-30T19:33:15.159Z,99771.04
2018-04-30T19:36:18.531Z,99776.67
2018-04-30T19:39:21.894Z,99775.82
2018-04-30T19:42:26.049Z,99773.20
2018-04-30T19:45:29.457Z,99779.23
2018-04-30T19:48:32.787Z,99787.52
2018-04-30T19:51:36.352Z,99790.95
2018-04-30T19:54:39.672Z,99793.16
2018-04-30T19:57:42.992Z,99800.95
2018-04-30T20:00:46.320Z,99797.47
2018-04-30T20:03:49.645Z,99800.95
2018-04-30T20:06:53.426Z,99803.55
2018-04-30T20:09:57.170Z,99796.59
2018-04-30T20:13:00.924Z,99800.54
2018-04-30T20:16:04.742Z,99806.61
2018-04-30T20:19:08.488Z,99808.34
2018-04-30T20:22:11.867Z,99801.00
2018-04-30T20:25:16.355Z,99810.52
2018-04-30T20:28:19.690Z,99803.17
2018-04-30T20:31:23.125Z,99803.59
2018-04-30T20:34:27.560Z,99802.29
2018-04-30T20:37:32.198Z,99804.88
2018-04-30T20:40:35.647Z,99803.13
2018-04-30T20:43:40.566Z,99798.38
2018-04-30T20:46:45.067Z,99796.19
2018-04-30T20:49:48.544Z,99802.70
2018-04-30T20:52:51.895Z,99797.94
2018-04-30T20:55:56.359Z,99791.88
2018-04-30T20:58:59.802Z,99797.94
2018-04-30T21:02:03.215Z,99787.11
2018-04-30T21:05:06.536Z,99793.61
2018-04-30T21:08:10.710Z,99789.23
2018-04-30T21:11:14.116Z,99789.63
2018-04-30T21:14:17.529Z,99787.04
2018-04-30T21:17:20.953Z,99787.01
2018-04-30T21:20:24.226Z,99789.57
2018-04-30T21:23:27.566Z,99791.26
2018-04-30T21:26:31.011Z,99793.38
2018-04-30T21:29:34.405Z,99788.59
2018-04-30T21:32:37.808Z,99795.91
2018-04-30T21:35:41.167Z,99791.11
2018-04-30T21:38:44.497Z,99794.56
2018-04-30T21:41:47.812Z,99793.27
2018-04-30T21:44:51.202Z,99788.50
2018-04-30T21:47:54.599Z,99791.95
2018-04-30T21:50:57.993Z,99790.19
2018-04-30T21:54:01.319Z,99789.31
2018-04-30T21:57:04.633Z,99790.58
2018-04-30T22:00:08.814Z,99792.31
2018-04-30T22:03:12.170Z,99796.20
2018-04-30T22:06:15.497Z,99789.69
2018-04-30T22:09:18.906Z,99787.06
2018-04-30T22:12:22.315Z,99790.55
2018-04-30T22:15:25.703Z,99789.65
2018-04-30T22:18:29.118Z,99780.97
2018-04-30T22:21:33.961Z,99789.59
2018-04-30T22:24:37.282Z,99785.27
2018-04-30T22:27:41.368Z,99779.63
2018-04-30T22:30:44.667Z,99787.37
2018-04-30T22:33:48.757Z,99787.77
2018-04-30T22:36:52.173Z,99776.93
2018-04-30T22:39:55.565Z,99775.14
2018-04-30T22:42:58.882Z,99780.29
2018-04-30T22:46:02.272Z,99779.81
2018-04-30T22:49:05.682Z,99775.45
2018-04-30T22:52:09.764Z,99772.42
2018-04-30T22:55:13.067Z,99768.95
2018-04-30T22:58:16.394Z,99764.18
2018-04-30T23:01:19.727Z,99758.98
2018-04-30T23:04:23.790Z,99758.96
2018-04-30T23:07:27.109Z,99749.41
2018-04-30T23:10:31.237Z,99746.39
2018-04-30T23:13:34.543Z,99749.91
2018-04-30T23:16:38.712Z,99750.42
2018-04-30T23:19:42.021Z,99748.34
2018-04-30T23:22:45.335Z,99742.32
2018-04-30T23:25:48.741Z,99745.36
2018-04-30T23:28:52.085Z,99744.45
2018-04-30T23:31:55.422Z,99735.80
2018-04-30T23:34:58.725Z,99735.31
2018-04-30T23:38:02.038Z,99733.47
2018-04-30T23:41:05.376Z,99731.67
2018-04-30T23:44:08.707Z,99724.68
2018-04-30T23:47:12.032Z,99720.27
2018-04-30T23:50:15.419Z,99723.22
2018-04-30T23:53:18.750Z,99725.73
2018-04-30T23:56:22.828Z,99717.52
2018-04-30T23:59:26.208Z,99730.03
